createdAt,value
2023-03-11T00:00:13.564Z,100874.50
2023-03-11T00:02:41.575Z,100875.47
2023-03-11T00:05:10.211Z,100885.19
2023-03-11T00:07:39.958Z,100893.94
2023-03-11T00:10:11.503Z,100902.28
2023-03-11T00:12:39.497Z,100886.41
2023-03-11T00:15:08.086Z,100897.09
2023-03-11T00:17:36.151Z,100888.34
2023-03-11T00:20:05.239Z,100884.00
2023-03-11T00:22:33.298Z,100884.75
2023-03-11T00:25:01.178Z,100888.56
2023-03-11T00:27:30.436Z,100890.75
2023-03-11T00:29:58.508Z,100891.84
2023-03-11T00:32:27.200Z,100876.25
2023-03-11T00:34:55.113Z,100881.66
2023-03-11T00:37:23.275Z,100877.34
2023-03-11T00:39:51.228Z,100867.63
2023-03-11T00:42:19.082Z,100874.59
2023-03-11T00:44:48.375Z,100874.47
2023-03-11T00:47:16.268Z,100868.19
2023-03-11T00:49:44.556Z,100872.66
2023-03-11T00:52:12.495Z,100873.47
2023-03-11T00:54:40.565Z,100864.59
2023-03-11T00:57:08.499Z,100869.63
2023-03-11T00:59:36.588Z,100856.44
2023-03-11T01:02:06.017Z,100853.78
2023-03-11T01:04:34.205Z,100859.91
2023-03-11T01:07:02.142Z,100852.09
2023-03-11T01:09:31.612Z,100849.47
2023-03-11T01:12:00.015Z,100851.16
2023-03-11T01:14:28.052Z,100844.19
2023-03-11T01:16:56.936Z,100836.25
2023-03-11T01:19:26.192Z,100844.06
2023-03-11T01:21:55.367Z,100841.31
2023-03-11T01:24:23.278Z,100824.63
2023-03-11T01:26:51.182Z,100814.19
2023-03-11T01:29:19.246Z,100814.19
2023-03-11T01:31:47.103Z,100820.41
2023-03-11T01:34:15.001Z,100828.34
2023-03-11T01:36:44.269Z,100833.50
2023-03-11T01:39:12.482Z,100834.59
2023-03-11T01:41:40.435Z,100822.34
2023-03-11T01:44:08.407Z,100820.94
2023-03-11T01:46:41.259Z,100820.31
2023-03-11T01:49:11.246Z,100807.41
2023-03-11T01:51:40.570Z,100797.16
2023-03-11T01:54:12.897Z,100795.50
2023-03-11T01:56:41.818Z,100784.34
2023-03-11T01:59:10.389Z,100776.09
2023-03-11T02:01:39.862Z,100778.28
2023-03-11T02:04:07.843Z,100782.72
2023-03-11T02:06:35.761Z,100788.13
2023-03-11T02:09:03.849Z,100796.88
2023-03-11T02:11:33.845Z,100789.81
2023-03-11T02:14:04.772Z,100785.38
2023-03-11T02:16:32.728Z,100781.78
2023-03-11T02:19:01.437Z,100784.53
2023-03-11T02:21:30.536Z,100788.13
2023-03-11T02:24:05.847Z,100777.81
2023-03-11T02:26:37.163Z,100769.88
2023-03-11T02:29:07.031Z,100765.72
2023-03-11T02:31:35.006Z,100757.81
2023-03-11T02:34:03.245Z,100764.16
2023-03-11T02:36:36.198Z,100769.19
2023-03-11T02:39:05.530Z,100768.25
2023-03-11T02:41:33.904Z,100755.03
2023-03-11T02:44:01.835Z,100757.81
2023-03-11T02:46:32.471Z,100755.41
2023-03-11T02:49:00.822Z,100749.16
2023-03-11T02:51:28.743Z,100744.97
2023-03-11T02:53:58.901Z,100751.22
2023-03-11T02:56:29.058Z,100741.38
2023-03-11T02:58:56.980Z,100753.88
2023-03-11T03:01:24.938Z,100748.31
2023-03-11T03:03:54.390Z,100751.69
2023-03-11T03:06:22.471Z,100754.19
2023-03-11T03:08:52.518Z,100765.00
2023-03-11T03:11:20.702Z,100762.25
2023-03-11T03:13:49.207Z,100763.91
2023-03-11T03:16:17.292Z,100763.91
2023-03-11T03:18:45.244Z,100766.56
2023-03-11T03:21:14.619Z,100758.75
2023-03-11T03:23:42.687Z,100760.56
2023-03-11T03:26:13.091Z,100772.78
2023-03-11T03:28:43.061Z,100760.69
2023-03-11T03:31:11.421Z,100751.91
2023-03-11T03:33:41.554Z,100731.66
2023-03-11T03:36:11.146Z,100726.25
2023-03-11T03:38:46.861Z,100735.41
2023-03-11T03:41:15.992Z,100724.34
2023-03-11T03:43:44.227Z,100724.47
2023-03-11T03:46:12.873Z,100736.88
2023-03-11T03:48:44.758Z,100742.13
2023-03-11T03:51:14.119Z,100742.38
2023-03-11T03:53:50.842Z,100716.22
2023-03-11T03:56:19.260Z,100735.53
2023-03-11T03:58:47.224Z,100748.16
2023-03-11T04:01:15.454Z,100736.31
2023-03-11T04:03:43.856Z,100733.06
2023-03-11T04:06:17.413Z,100731.66
2023-03-11T04:08:45.861Z,100734.88
2023-03-11T04:11:15.839Z,100754.41
2023-03-11T04:13:44.795Z,100753.44
2023-03-11T04:16:15.859Z,100734.75
2023-03-11T04:18:44.179Z,100733.78
2023-03-11T04:21:12.336Z,100721.78
2023-03-11T04:23:40.601Z,100733.31
2023-03-11T04:26:09.157Z,100724.69
2023-03-11T04:28:39.962Z,100733.56
2023-03-11T04:31:08.431Z,100726.63
2023-03-11T04:33:36.995Z,100728.53
2023-03-11T04:36:07.594Z,100733.81
2023-03-11T04:38:36.798Z,100724.94
2023-03-11T04:41:05.424Z,100734.06
2023-03-11T04:43:33.910Z,100723.53
2023-03-11T04:46:03.363Z,100725.44
2023-03-11T04:48:31.328Z,100729.88
2023-03-11T04:50:59.587Z,100722.69
2023-03-11T04:53:28.548Z,100713.94
2023-03-11T04:55:57.201Z,100704.94
2023-03-11T04:58:25.166Z,100715.50
2023-03-11T05:00:53.470Z,100732.97
2023-03-11T05:03:23.913Z,100748.78
2023-03-11T05:05:54.228Z,100748.44
2023-03-11T05:08:22.493Z,100757.03
2023-03-11T05:10:50.468Z,100752.50
2023-03-11T05:13:18.390Z,100760.16
2023-03-11T05:15:46.344Z,100755.59
2023-03-11T05:18:14.492Z,100739.63
2023-03-11T05:20:44.187Z,100728.97
2023-03-11T05:23:13.419Z,100721.06
2023-03-11T05:25:42.228Z,100731.59
2023-03-11T05:28:10.971Z,100733.69
2023-03-11T05:30:44.858Z,100723.94
2023-03-11T05:33:13.039Z,100724.91
2023-03-11T05:35:41.129Z,100722.50
2023-03-11T05:38:41.327Z,100731.38
2023-03-11T05:41:09.632Z,100737.38
2023-03-11T05:43:38.146Z,100734.03
2023-03-11T05:46:06.200Z,100746.50
2023-03-11T05:48:36.329Z,100735.47
2023-03-11T05:51:07.962Z,100749.41
2023-03-11T05:53:37.722Z,100756.09
2023-03-11T05:56:06.476Z,100755.84
2023-03-11T05:58:34.669Z,100755.34
2023-03-11T06:01:02.879Z,100754.41
2023-03-11T06:03:31.081Z,100759.66
2023-03-11T06:05:59.237Z,100755.81
2023-03-11T06:08:27.283Z,100768.75
2023-03-11T06:11:02.212Z,100774.50
2023-03-11T06:13:30.569Z,100774.38
2023-03-11T06:15:58.543Z,100771.97
2023-03-11T06:18:26.927Z,100763.25
2023-03-11T06:20:55.054Z,100771.53
2023-03-11T06:23:23.036Z,100790.81
2023-03-11T06:25:57.877Z,100775.97
2023-03-11T06:28:26.722Z,100772.63
2023-03-11T06:30:56.839Z,100784.13
2023-03-11T06:33:25.205Z,100788.69
2023-03-11T06:35:59.328Z,100772.03
2023-03-11T06:38:27.296Z,100767.81
2023-03-11T06:40:55.307Z,100762.69
2023-03-11T06:43:25.030Z,100768.09
2023-03-11T06:45:54.402Z,100764.50
2023-03-11T06:48:22.523Z,100757.53
2023-03-11T06:50:57.378Z,100756.56
2023-03-11T06:53:26.280Z,100755.84
2023-03-11T06:56:01.797Z,100761.84
2023-03-11T06:58:33.531Z,100764.50
2023-03-11T07:01:02.343Z,100768.09
2023-03-11T07:03:30.881Z,100763.25
2023-03-11T07:05:59.833Z,100757.75
2023-03-11T07:08:27.785Z,100766.50
2023-03-11T07:11:03.393Z,100766.50
2023-03-11T07:13:33.218Z,100772.84
2023-03-11T07:16:02.399Z,100774.78
2023-03-11T07:18:30.427Z,100778.38
2023-03-11T07:20:58.408Z,100773.09
2023-03-11T07:23:26.334Z,100774.78
2023-03-11T07:25:55.855Z,100766.97
2023-03-11T07:28:24.105Z,100780.06
2023-03-11T07:30:53.399Z,100779.81
2023-03-11T07:33:21.598Z,100784.81
2023-03-11T07:35:50.095Z,100780.28
2023-03-11T07:38:18.109Z,100782.69
2023-03-11T07:40:46.608Z,100779.56
2023-03-11T07:43:15.085Z,100772.97
2023-03-11T07:45:43.128Z,100764.31
2023-03-11T07:48:12.575Z,100769.09
2023-03-11T07:50:40.476Z,100776.78
2023-03-11T07:53:08.549Z,100764.16
2023-03-11T07:55:36.790Z,100777.34
2023-03-11T07:58:04.688Z,100775.56
2023-03-11T08:00:32.672Z,100775.56
2023-03-11T08:03:00.798Z,100775.56
2023-03-11T08:05:30.201Z,100783.22
2023-03-11T08:07:58.164Z,100777.44
2023-03-11T08:10:26.081Z,100777.06
2023-03-11T08:12:54.067Z,100778.22
2023-03-11T08:15:22.063Z,100769.13
2023-03-11T08:17:50.071Z,100767.78
2023-03-11T08:20:18.257Z,100768.50
2023-03-11T08:22:57.615Z,100782.28
2023-03-11T08:25:26.213Z,100774.81
2023-03-11T08:27:54.098Z,100780.69
2023-03-11T08:30:22.291Z,100785.69
2023-03-11T08:32:50.318Z,100789.31
2023-03-11T08:35:18.554Z,100791.56
2023-03-11T08:37:47.823Z,100796.59
2023-03-11T08:40:15.810Z,100798.53
2023-03-11T08:42:44.000Z,100794.66
2023-03-11T08:45:12.733Z,100792.72
2023-03-11T08:47:40.839Z,100785.53
2023-03-11T08:50:10.438Z,100789.56
2023-03-11T08:52:38.444Z,100776.81
2023-03-11T08:55:11.233Z,100777.97
2023-03-11T08:57:39.292Z,100768.09
2023-03-11T09:00:10.662Z,100762.56
2023-03-11T09:02:41.619Z,100763.13
2023-03-11T09:05:10.550Z,100766.50
2023-03-11T09:07:38.473Z,100760.97
2023-03-11T09:10:08.456Z,100758.88
2023-03-11T09:12:36.469Z,100746.25
2023-03-11T09:15:05.807Z,100762.66
2023-03-11T09:17:33.835Z,100760.03
2023-03-11T09:20:02.015Z,100757.13
2023-03-11T09:22:30.058Z,100761.41
2023-03-11T09:24:58.923Z,100766.56
2023-03-11T09:27:28.326Z,100772.44
2023-03-11T09:29:56.304Z,100761.09
2023-03-11T09:32:24.275Z,100753.84
2023-03-11T09:34:52.224Z,100756.22
2023-03-11T09:37:20.133Z,100751.09
2023-03-11T09:39:48.128Z,100759.47
2023-03-11T09:42:20.023Z,100757.53
2023-03-11T09:44:53.317Z,100763.50
2023-03-11T09:47:38.611Z,100747.97
2023-03-11T09:50:18.227Z,100742.81
2023-03-11T09:52:48.122Z,100749.50
2023-03-11T09:55:33.906Z,100751.19
2023-03-11T09:58:03.552Z,100734.91
2023-03-11T10:00:32.894Z,100740.09
2023-03-11T10:03:01.527Z,100752.38
2023-03-11T10:05:30.179Z,100754.34
2023-03-11T10:08:00.626Z,100754.19
2023-03-11T10:10:30.003Z,100759.91
2023-03-11T10:13:00.899Z,100768.41
2023-03-11T10:15:39.410Z,100757.13
2023-03-11T10:18:24.845Z,100777.06
2023-03-11T10:20:55.719Z,100785.00
2023-03-11T10:23:27.332Z,100773.84
2023-03-11T10:26:02.230Z,100777.47
2023-03-11T10:28:33.416Z,100778.00
2023-03-11T10:31:05.495Z,100767.88
2023-03-11T10:33:35.284Z,100775.50
2023-03-11T10:36:06.166Z,100782.50
2023-03-11T10:38:35.254Z,100774.84
2023-03-11T10:41:06.288Z,100777.19
2023-03-11T10:43:36.442Z,100775.25
2023-03-11T10:46:08.009Z,100764.66
2023-03-11T10:48:36.044Z,100769.97
2023-03-11T10:51:05.196Z,100759.06
2023-03-11T10:53:33.196Z,100759.63
2023-03-11T10:56:01.123Z,100760.03
2023-03-11T10:58:30.019Z,100749.44
2023-03-11T11:01:06.942Z,100750.81
2023-03-11T11:03:34.903Z,100747.63
2023-03-11T11:06:04.576Z,100739.78
2023-03-11T11:08:32.581Z,100744.25
2023-03-11T11:11:01.139Z,100750.38
2023-03-11T11:13:30.248Z,100747.59
2023-03-11T11:16:00.203Z,100751.78
2023-03-11T11:18:30.842Z,100742.88
2023-03-11T11:21:04.291Z,100732.25
2023-03-11T11:23:34.403Z,100737.97
2023-03-11T11:26:04.711Z,100733.91
2023-03-11T11:28:33.623Z,100728.44
2023-03-11T11:31:03.691Z,100725.38
2023-03-11T11:33:33.837Z,100723.28
2023-03-11T11:36:03.389Z,100727.47
2023-03-11T11:38:32.228Z,100730.25
2023-03-11T11:41:02.510Z,100720.75
2023-03-11T11:43:49.706Z,100708.44
2023-03-11T11:46:27.083Z,100712.00
2023-03-11T11:49:05.363Z,100703.63
2023-03-11T11:51:35.295Z,100695.75
2023-03-11T11:54:07.193Z,100704.28
2023-03-11T11:56:35.122Z,100685.56
2023-03-11T11:59:03.078Z,100687.38
2023-03-11T12:01:36.357Z,100678.72
2023-03-11T12:04:21.973Z,100675.34
2023-03-11T12:06:52.057Z,100668.03
2023-03-11T12:09:24.439Z,100674.84
2023-03-11T12:11:53.650Z,100666.28
2023-03-11T12:14:22.753Z,100681.84
2023-03-11T12:16:53.834Z,100673.78
2023-03-11T12:19:29.783Z,100668.47
2023-03-11T12:22:32.050Z,100671.81
2023-03-11T12:25:14.926Z,100668.16
2023-03-11T12:27:44.460Z,100671.81
2023-03-11T12:30:14.598Z,100667.50
2023-03-11T12:32:44.481Z,100653.91
2023-03-11T12:35:21.445Z,100648.97
2023-03-11T12:37:56.886Z,100649.06
2023-03-11T12:41:00.173Z,100644.44
2023-03-11T12:43:49.992Z,100628.88
2023-03-11T12:46:18.881Z,100642.53
2023-03-11T12:48:47.125Z,100637.53
2023-03-11T12:51:41.483Z,100660.38
2023-03-11T12:54:23.110Z,100648.38
2023-03-11T12:56:52.714Z,100658.22
2023-03-11T12:59:45.374Z,100654.88
2023-03-11T13:02:20.747Z,100644.22
2023-03-11T13:04:52.626Z,100632.84
2023-03-11T13:07:38.156Z,100629.81
2023-03-11T13:10:21.434Z,100632.38
2023-03-11T13:12:49.616Z,100641.41
2023-03-11T13:15:43.092Z,100641.03
2023-03-11T13:18:19.261Z,100634.66
2023-03-11T13:20:56.141Z,100643.59
2023-03-11T13:23:30.461Z,100635.09
2023-03-11T13:26:14.894Z,100624.22
2023-03-11T13:29:01.813Z,100635.03
2023-03-11T13:31:39.214Z,100634.31
2023-03-11T13:34:16.340Z,100634.91
2023-03-11T13:36:55.575Z,100631.88
2023-03-11T13:39:32.800Z,100638.28
2023-03-11T13:42:00.704Z,100629.94
2023-03-11T13:44:30.460Z,100631.06
2023-03-11T13:47:01.810Z,100626.06
2023-03-11T13:49:34.429Z,100639.47
2023-03-11T13:52:02.895Z,100640.59
2023-03-11T13:54:36.014Z,100628.91
2023-03-11T13:57:04.086Z,100627.53
2023-03-11T13:59:33.692Z,100616.91
2023-03-11T14:02:02.978Z,100601.59
2023-03-11T14:04:31.919Z,100610.94
2023-03-11T14:06:59.973Z,100602.03
2023-03-11T14:09:28.893Z,100607.31
2023-03-11T14:12:04.818Z,100592.16
2023-03-11T14:14:38.398Z,100603.00
2023-03-11T14:17:06.780Z,100612.78
2023-03-11T14:19:34.673Z,100615.56
2023-03-11T14:22:02.567Z,100598.97
2023-03-11T14:24:30.862Z,100612.22
2023-03-11T14:27:01.238Z,100594.34
2023-03-11T14:29:32.372Z,100586.03
2023-03-11T14:32:00.475Z,100596.03
2023-03-11T14:34:30.034Z,100605.66
2023-03-11T14:36:59.026Z,100604.50
2023-03-11T14:39:29.143Z,100596.72
2023-03-11T14:42:01.122Z,100600.03
2023-03-11T14:44:29.281Z,100582.06
2023-03-11T14:46:59.903Z,100606.03
2023-03-11T14:49:27.958Z,100592.09
2023-03-11T14:51:58.040Z,100608.00
2023-03-11T14:54:26.866Z,100595.06
2023-03-11T14:56:57.362Z,100585.41
2023-03-11T14:59:27.832Z,100592.63
2023-03-11T15:01:56.393Z,100592.63
2023-03-11T15:04:27.981Z,100591.56
2023-03-11T15:06:55.932Z,100593.22
2023-03-11T15:09:24.970Z,100578.16
2023-03-11T15:11:55.251Z,100585.09
2023-03-11T15:14:24.374Z,100580.63
2023-03-11T15:16:53.854Z,100575.19
2023-03-11T15:19:31.194Z,100591.50
2023-03-11T15:22:06.794Z,100586.19
2023-03-11T15:24:34.953Z,100594.84
2023-03-11T15:27:03.724Z,100585.91
2023-03-11T15:29:31.957Z,100573.34
2023-03-11T15:32:01.459Z,100573.34
2023-03-11T15:34:30.971Z,100579.47
2023-03-11T15:37:21.023Z,100573.63
2023-03-11T15:39:51.251Z,100578.22
2023-03-11T15:42:21.235Z,100563.34
2023-03-11T15:45:14.573Z,100549.66
2023-03-11T15:47:43.958Z,100554.69
2023-03-11T15:50:24.045Z,100532.50
2023-03-11T15:52:53.100Z,100552.72
2023-03-11T15:55:21.081Z,100540.44
2023-03-11T15:57:49.092Z,100564.31
2023-03-11T16:00:19.394Z,100559.16
2023-03-11T16:02:48.845Z,100544.78
2023-03-11T16:05:17.640Z,100538.47
2023-03-11T16:07:46.721Z,100545.44
2023-03-11T16:10:15.230Z,100556.22
2023-03-11T16:12:43.556Z,100582.06
2023-03-11T16:15:22.260Z,100578.09
2023-03-11T16:17:52.217Z,100574.50
2023-03-11T16:20:21.846Z,100568.25
2023-03-11T16:22:50.243Z,100574.22
2023-03-11T16:25:23.150Z,100561.50
2023-03-11T16:27:52.120Z,100563.72
2023-03-11T16:30:20.344Z,100566.78
2023-03-11T16:32:48.281Z,100565.34
2023-03-11T16:35:17.799Z,100573.44
2023-03-11T16:37:45.827Z,100565.19
2023-03-11T16:40:14.590Z,100561.44
2023-03-11T16:42:43.619Z,100562.25
2023-03-11T16:45:12.101Z,100563.63
2023-03-11T16:47:40.078Z,100570.03
2023-03-11T16:50:09.046Z,100563.63
2023-03-11T16:52:38.378Z,100567.78
2023-03-11T16:55:07.201Z,100565.97
2023-03-11T16:57:35.132Z,100578.53
2023-03-11T17:00:05.529Z,100566.25
2023-03-11T17:02:33.621Z,100564.41
2023-03-11T17:05:01.545Z,100561.91
2023-03-11T17:07:29.558Z,100565.06
2023-03-11T17:09:59.050Z,100556.88
2023-03-11T17:12:27.118Z,100553.31
2023-03-11T17:14:55.342Z,100565.19
2023-03-11T17:17:23.517Z,100559.81
2023-03-11T17:19:51.479Z,100574.78
2023-03-11T17:22:19.461Z,100568.34
2023-03-11T17:24:47.381Z,100560.94
2023-03-11T17:27:16.611Z,100559.38
2023-03-11T17:29:44.562Z,100563.44
2023-03-11T17:32:16.785Z,100565.16
2023-03-11T17:34:45.145Z,100563.56
2023-03-11T17:37:14.209Z,100557.16
2023-03-11T17:39:42.275Z,100561.47
2023-03-11T17:42:10.347Z,100567.03
2023-03-11T17:44:51.020Z,100570.66
2023-03-11T17:47:20.644Z,100569.66
2023-03-11T17:49:48.780Z,100573.97
2023-03-11T17:52:17.002Z,100569.50
2023-03-11T17:54:44.919Z,100570.03
2023-03-11T17:57:12.862Z,100569.50
2023-03-11T17:59:42.168Z,100573.97
2023-03-11T18:02:13.462Z,100569.34
2023-03-11T18:04:43.415Z,100582.97
2023-03-11T18:07:11.377Z,100582.63
2023-03-11T18:09:39.445Z,100578.66
2023-03-11T18:12:07.706Z,100586.63
2023-03-11T18:14:35.636Z,100592.94
2023-03-11T18:17:05.193Z,100608.19
2023-03-11T18:19:33.097Z,100599.13
2023-03-11T18:22:01.037Z,100604.94
2023-03-11T18:24:28.936Z,100609.13
2023-03-11T18:26:56.854Z,100614.28
2023-03-11T18:29:24.822Z,100615.28
2023-03-11T18:31:53.871Z,100615.28
2023-03-11T18:34:23.267Z,100614.19
2023-03-11T18:36:51.214Z,100624.88
2023-03-11T18:39:20.754Z,100626.84
2023-03-11T18:41:48.722Z,100625.38
2023-03-11T18:44:16.652Z,100633.53
2023-03-11T18:46:44.561Z,100631.22
2023-03-11T18:49:13.106Z,100633.50
2023-03-11T18:51:42.386Z,100632.56
2023-03-11T18:54:11.316Z,100628.59
2023-03-11T18:56:39.286Z,100624.91
2023-03-11T18:59:08.602Z,100644.19
2023-03-11T19:01:36.796Z,100639.16
2023-03-11T19:04:04.780Z,100626.91
2023-03-11T19:06:32.861Z,100628.88
2023-03-11T19:09:02.226Z,100633.84
2023-03-11T19:11:30.278Z,100637.84
2023-03-11T19:13:58.206Z,100649.16
2023-03-11T19:16:26.769Z,100652.44
2023-03-11T19:18:55.198Z,100653.13
2023-03-11T19:21:23.246Z,100660.81
2023-03-11T19:23:55.274Z,100659.16
2023-03-11T19:26:41.501Z,100652.81
2023-03-11T19:29:12.116Z,100659.78
2023-03-11T19:31:40.091Z,100667.03
2023-03-11T19:34:08.127Z,100665.22
2023-03-11T19:36:36.125Z,100665.75
2023-03-11T19:39:04.247Z,100669.09
2023-03-11T19:41:33.668Z,100660.78
2023-03-11T19:44:04.111Z,100664.81
2023-03-11T19:46:34.809Z,100664.06
2023-03-11T19:49:03.170Z,100653.75
2023-03-11T19:51:46.322Z,100669.59
2023-03-11T19:54:17.147Z,100658.59
2023-03-11T19:56:46.549Z,100664.75
2023-03-11T19:59:14.602Z,100677.72
2023-03-11T20:01:43.286Z,100669.41
2023-03-11T20:04:11.546Z,100685.66
2023-03-11T20:06:39.667Z,100687.03
2023-03-11T20:09:07.933Z,100682.38
2023-03-11T20:11:39.658Z,100688.16
2023-03-11T20:14:09.331Z,100694.00
2023-03-11T20:16:37.481Z,100685.03
2023-03-11T20:19:05.497Z,100695.69
2023-03-11T20:21:38.887Z,100683.78
2023-03-11T20:24:07.250Z,100694.31
2023-03-11T20:26:35.503Z,100689.94
2023-03-11T20:29:03.461Z,100687.44
2023-03-11T20:31:33.144Z,100692.81
2023-03-11T20:34:01.327Z,100708.41
2023-03-11T20:36:33.042Z,100695.47
2023-03-11T20:39:01.209Z,100700.94
2023-03-11T20:41:29.401Z,100707.19
2023-03-11T20:43:57.939Z,100713.44
2023-03-11T20:46:25.960Z,100704.44
2023-03-11T20:48:55.436Z,100719.59
2023-03-11T20:51:25.067Z,100714.81
2023-03-11T20:53:53.057Z,100719.28
2023-03-11T20:56:22.106Z,100713.97
2023-03-11T20:58:51.066Z,100725.75
2023-03-11T21:01:20.294Z,100727.66
2023-03-11T21:03:48.907Z,100713.88
2023-03-11T21:06:19.443Z,100709.06
2023-03-11T21:08:47.632Z,100736.44
2023-03-11T21:11:16.314Z,100729.78
2023-03-11T21:13:44.519Z,100732.94
2023-03-11T21:16:12.645Z,100736.72
2023-03-11T21:18:41.361Z,100744.25
2023-03-11T21:21:11.653Z,100742.53
2023-03-11T21:23:41.154Z,100731.22
2023-03-11T21:26:09.154Z,100746.16
2023-03-11T21:28:38.895Z,100760.78
2023-03-11T21:31:10.895Z,100743.50
2023-03-11T21:33:39.270Z,100751.75
2023-03-11T21:36:08.278Z,100757.75
2023-03-11T21:38:36.303Z,100757.97
2023-03-11T21:41:09.725Z,100773.25
2023-03-11T21:43:37.917Z,100773.66
2023-03-11T21:46:06.233Z,100765.31
2023-03-11T21:48:34.284Z,100777.84
2023-03-11T21:51:02.235Z,100770.00
2023-03-11T21:53:30.226Z,100773.50
2023-03-11T21:55:59.358Z,100779.94
2023-03-11T21:58:28.664Z,100778.69
2023-03-11T22:00:57.040Z,100788.50
2023-03-11T22:03:25.160Z,100789.66
2023-03-11T22:05:57.359Z,100790.34
2023-03-11T22:08:25.446Z,100796.03
2023-03-11T22:10:53.563Z,100789.66
2023-03-11T22:13:21.753Z,100795.00
2023-03-11T22:15:51.134Z,100792.69
2023-03-11T22:18:19.295Z,100790.66
2023-03-11T22:20:47.254Z,100792.00
2023-03-11T22:23:15.308Z,100805.38
2023-03-11T22:25:43.414Z,100795.56
2023-03-11T22:28:12.976Z,100808.78
2023-03-11T22:30:41.038Z,100822.31
2023-03-11T22:33:10.357Z,100821.31
2023-03-11T22:35:38.302Z,100819.06
2023-03-11T22:38:06.250Z,100816.31
2023-03-11T22:40:34.980Z,100825.97
2023-03-11T22:43:02.890Z,100816.31
2023-03-11T22:45:30.833Z,100830.53
2023-03-11T22:47:58.784Z,100830.59
2023-03-11T22:50:28.190Z,100836.28
2023-03-11T22:52:56.079Z,100847.63
2023-03-11T22:55:24.053Z,100842.66
2023-03-11T22:57:52.025Z,100856.88
2023-03-11T23:00:21.137Z,100852.88
2023-03-11T23:02:49.803Z,100855.53
2023-03-11T23:05:18.021Z,100854.91
2023-03-11T23:07:47.350Z,100857.56
2023-03-11T23:10:15.557Z,100866.16
2023-03-11T23:12:43.478Z,100858.53
2023-03-11T23:15:13.201Z,100875.03
2023-03-11T23:17:41.164Z,100872.59
2023-03-11T23:20:11.142Z,100886.00
2023-03-11T23:22:39.244Z,100877.41
2023-03-11T23:25:10.102Z,100879.69
2023-03-11T23:27:38.008Z,100879.91
2023-03-11T23:30:07.148Z,100878.16
2023-03-11T23:32:35.193Z,100890.63
2023-03-11T23:35:03.861Z,100887.06
2023-03-11T23:37:31.786Z,100891.22
2023-03-11T23:39:59.957Z,100891.97
2023-03-11T23:42:29.262Z,100894.59
2023-03-11T23:44:57.482Z,100899.94
2023-03-11T23:47:25.644Z,100895.94
2023-03-11T23:49:53.515Z,100896.47
2023-03-11T23:52:21.503Z,100898.81
2023-03-11T23:54:49.426Z,100884.69
2023-03-11T23:57:17.489Z,100890.63
2023-03-11T23:59:46.812Z,100887.28
